createdAt,value
2019-03-02T00:00:22.950Z,0
2019-03-02T00:01:03.656Z,0
2019-03-02T00:01:45.771Z,0
2019-03-02T00:02:25.463Z,0
2019-03-02T00:03:05.371Z,0
2019-03-02T00:03:45.966Z,0
2019-03-02T00:04:26.545Z,0
2019-03-02T00:05:07.135Z,0
2019-03-02T00:05:47.730Z,0
2019-03-02T00:06:28.309Z,0
2019-03-02T00:07:11.222Z,0
2019-03-02T00:07:49.531Z,0
2019-03-02T00:08:30.137Z,0
2019-03-02T00:09:10.726Z,0
2019-03-02T00:09:51.314Z,0
2019-03-02T00:10:31.892Z,0
2019-03-02T00:11:12.490Z,0
2019-03-02T00:11:56.386Z,0
2019-03-02T00:12:33.690Z,0
2019-03-02T00:13:14.582Z,0
2019-03-02T00:13:55.181Z,0
2019-03-02T00:14:35.784Z,0
2019-03-02T00:15:16.390Z,0
2019-03-02T00:15:56.990Z,0
2019-03-02T00:16:39.720Z,0
2019-03-02T00:17:19.016Z,0
2019-03-02T00:18:00.265Z,0
2019-03-02T00:18:40.860Z,0
2019-03-02T00:19:21.438Z,0
2019-03-02T00:20:02.061Z,0
2019-03-02T00:20:42.682Z,0
2019-03-02T00:21:23.263Z,0
2019-03-02T00:22:06.735Z,0
2019-03-02T00:22:44.905Z,0
2019-03-02T00:23:25.630Z,0
2019-03-02T00:24:07.485Z,0
2019-03-02T00:24:48.074Z,0
2019-03-02T00:25:30.640Z,0
2019-03-02T00:26:10.159Z,0
2019-03-02T00:26:49.891Z,0
2019-03-02T00:27:30.486Z,0
2019-03-02T00:28:11.076Z,0
2019-03-02T00:28:51.662Z,0
2019-03-02T00:29:32.482Z,0
2019-03-02T00:30:13.141Z,0
2019-03-02T00:30:54.748Z,0
2019-03-02T00:31:34.321Z,0
2019-03-02T00:32:14.914Z,0
2019-03-02T00:32:55.515Z,0
2019-03-02T00:33:36.107Z,0
2019-03-02T00:34:16.720Z,0
2019-03-02T00:34:57.371Z,0
2019-03-02T00:35:39.694Z,0
2019-03-02T00:36:19.390Z,0
2019-03-02T00:36:59.189Z,0
2019-03-02T00:37:39.801Z,0
2019-03-02T00:38:20.399Z,0
2019-03-02T00:39:01.646Z,0
2019-03-02T00:39:41.580Z,0
2019-03-02T00:40:22.208Z,0
2019-03-02T00:41:03.695Z,0
2019-03-02T00:41:44.085Z,0
2019-03-02T00:42:24.761Z,0
2019-03-02T00:43:05.372Z,0
2019-03-02T00:43:45.962Z,0
2019-03-02T00:44:26.569Z,0
2019-03-02T00:45:07.159Z,0
2019-03-02T00:45:48.851Z,0
2019-03-02T00:46:28.337Z,0
2019-03-02T00:47:09.338Z,0
2019-03-02T00:47:50.771Z,0
2019-03-02T00:48:31.523Z,0
2019-03-02T00:49:12.618Z,0
2019-03-02T00:49:53.378Z,0
2019-03-02T00:50:37.340Z,0
2019-03-02T00:51:17.546Z,0
2019-03-02T00:51:58.257Z,0
2019-03-02T00:52:39.003Z,0
2019-03-02T00:53:20.520Z,0
2019-03-02T00:54:01.205Z,0
2019-03-02T00:54:43.333Z,0
2019-03-02T00:55:22.720Z,0
2019-03-02T00:56:04.030Z,0
2019-03-02T00:56:44.494Z,0
2019-03-02T00:57:24.965Z,0
2019-03-02T00:58:07.511Z,0
2019-03-02T00:58:48.102Z,0
2019-03-02T00:59:29.247Z,0
2019-03-02T01:00:18.373Z,0
2019-03-02T01:00:58.976Z,0
2019-03-02T01:01:39.558Z,0
2019-03-02T01:02:20.205Z,0
2019-03-02T01:03:00.807Z,0
2019-03-02T01:03:41.428Z,0
2019-03-02T01:04:22.686Z,0
2019-03-02T01:05:03.062Z,0
2019-03-02T01:05:43.198Z,0
2019-03-02T01:06:23.787Z,0
2019-03-02T01:07:04.386Z,0
2019-03-02T01:07:44.973Z,0
2019-03-02T01:08:25.571Z,0
2019-03-02T01:09:07.837Z,0
2019-03-02T01:09:47.370Z,0
2019-03-02T01:10:27.337Z,0
2019-03-02T01:11:07.931Z,0
2019-03-02T01:11:48.513Z,0
2019-03-02T01:12:29.108Z,0
2019-03-02T01:13:09.753Z,0
2019-03-02T01:13:50.368Z,0
2019-03-02T01:14:31.821Z,0
2019-03-02T01:15:11.567Z,0
2019-03-02T01:15:52.193Z,0
2019-03-02T01:16:32.789Z,0
2019-03-02T01:17:13.375Z,0
2019-03-02T01:17:53.969Z,0
2019-03-02T01:18:34.599Z,0
2019-03-02T01:19:17.584Z,0
2019-03-02T01:19:55.782Z,0
2019-03-02T01:20:36.385Z,0
2019-03-02T01:21:16.982Z,0
2019-03-02T01:21:57.591Z,0
2019-03-02T01:22:38.191Z,0
2019-03-02T01:23:18.775Z,0
2019-03-02T01:23:59.675Z,0
2019-03-02T01:24:39.962Z,0
2019-03-02T01:25:20.575Z,0
2019-03-02T01:26:01.168Z,0
2019-03-02T01:26:41.751Z,0
2019-03-02T01:27:22.339Z,0
2019-03-02T01:28:02.928Z,0
2019-03-02T01:28:44.494Z,0
2019-03-02T01:29:24.102Z,0
2019-03-02T01:30:04.688Z,0
2019-03-02T01:30:45.271Z,0
2019-03-02T01:31:25.871Z,0
2019-03-02T01:32:06.481Z,0
2019-03-02T01:32:48.635Z,0
2019-03-02T01:33:28.538Z,0
2019-03-02T01:34:08.537Z,0
2019-03-02T01:34:48.891Z,0
2019-03-02T01:35:29.489Z,0
2019-03-02T01:36:10.093Z,0
2019-03-02T01:36:50.677Z,0
2019-03-02T01:37:31.279Z,0
2019-03-02T01:38:11.893Z,0
2019-03-02T01:38:53.922Z,0
2019-03-02T01:39:33.083Z,0
2019-03-02T01:40:13.659Z,0
2019-03-02T01:40:54.243Z,0
2019-03-02T01:41:34.841Z,0
2019-03-02T01:42:15.435Z,0
2019-03-02T01:42:56.019Z,0
2019-03-02T01:43:39.998Z,0
2019-03-02T01:44:17.508Z,0
2019-03-02T01:44:57.805Z,0
2019-03-02T01:45:38.393Z,0
2019-03-02T01:46:18.987Z,0
2019-03-02T01:46:59.589Z,0
2019-03-02T01:47:40.199Z,0
2019-03-02T01:48:22.743Z,0
2019-03-02T01:49:01.517Z,0
2019-03-02T01:49:41.973Z,0
2019-03-02T01:50:22.563Z,0
2019-03-02T01:51:03.165Z,0
2019-03-02T01:51:43.761Z,0
2019-03-02T01:52:24.361Z,0
2019-03-02T01:53:06.444Z,0
2019-03-02T01:53:46.820Z,0
2019-03-02T01:54:26.145Z,0
2019-03-02T01:55:06.747Z,0
2019-03-02T01:55:47.327Z,0
2019-03-02T01:56:27.919Z,0
2019-03-02T01:57:08.537Z,0
2019-03-02T01:57:52.217Z,0
2019-03-02T01:58:29.729Z,0
2019-03-02T01:59:10.336Z,0
2019-03-02T01:59:50.935Z,0
2019-03-02T02:00:31.545Z,0
2019-03-02T02:01:12.192Z,0
2019-03-02T02:01:52.787Z,0
2019-03-02T02:02:36.061Z,0
2019-03-02T02:03:13.992Z,0
2019-03-02T02:03:54.583Z,0
2019-03-02T02:04:35.193Z,0
2019-03-02T02:05:15.785Z,0
2019-03-02T02:05:56.373Z,0
2019-03-02T02:06:39.772Z,0
2019-03-02T02:07:17.977Z,0
2019-03-02T02:07:58.193Z,0
2019-03-02T02:08:38.814Z,0
2019-03-02T02:09:19.409Z,0
2019-03-02T02:10:01.797Z,0
2019-03-02T02:10:43.313Z,0
2019-03-02T02:11:22.983Z,0
2019-03-02T02:12:03.582Z,0
2019-03-02T02:12:44.161Z,0
2019-03-02T02:13:24.765Z,0
2019-03-02T02:14:05.356Z,0
2019-03-02T02:14:45.961Z,0
2019-03-02T02:15:29.296Z,0
2019-03-02T02:16:07.163Z,0
2019-03-02T02:16:47.753Z,0
2019-03-02T02:17:28.342Z,0
2019-03-02T02:18:08.941Z,0
2019-03-02T02:18:49.533Z,0
2019-03-02T02:19:30.121Z,0
2019-03-02T02:20:10.947Z,0
2019-03-02T02:20:51.623Z,0
2019-03-02T02:21:31.905Z,0
2019-03-02T02:22:12.513Z,0
2019-03-02T02:22:53.111Z,0
2019-03-02T02:23:33.690Z,0
2019-03-02T02:24:14.269Z,0
2019-03-02T02:24:56.734Z,0
2019-03-02T02:25:36.466Z,0
2019-03-02T02:26:16.033Z,0
2019-03-02T02:26:56.633Z,0
2019-03-02T02:27:37.221Z,0
2019-03-02T02:28:17.805Z,0
2019-03-02T02:28:58.423Z,0
2019-03-02T02:29:40.594Z,0
2019-03-02T02:30:24.264Z,0
2019-03-02T02:31:01.570Z,0
2019-03-02T02:31:44.968Z,0
2019-03-02T02:32:23.913Z,0
2019-03-02T02:33:03.893Z,0
2019-03-02T02:33:44.225Z,0
2019-03-02T02:34:23.729Z,0
2019-03-02T02:35:03.889Z,0
2019-03-02T02:35:44.471Z,0
2019-03-02T02:36:25.092Z,0
2019-03-02T02:37:05.683Z,0
2019-03-02T02:37:46.274Z,0
2019-03-02T02:38:26.876Z,0
2019-03-02T02:39:07.469Z,0
2019-03-02T02:39:48.069Z,0
2019-03-02T02:40:28.663Z,0
2019-03-02T02:41:09.262Z,0
2019-03-02T02:41:49.858Z,0
2019-03-02T02:42:30.463Z,0
2019-03-02T02:43:11.057Z,0
2019-03-02T02:43:54.117Z,0
2019-03-02T02:44:33.016Z,0
2019-03-02T02:45:15.135Z,0
2019-03-02T02:45:54.961Z,0
2019-03-02T02:46:34.471Z,0
2019-03-02T02:47:14.624Z,0
2019-03-02T02:47:55.253Z,0
2019-03-02T02:48:35.847Z,0
2019-03-02T02:49:16.463Z,0
2019-03-02T02:49:57.067Z,0
2019-03-02T02:50:37.658Z,0
2019-03-02T02:51:18.262Z,0
2019-03-02T02:51:58.850Z,0
2019-03-02T02:52:39.460Z,0
2019-03-02T02:53:20.048Z,0
2019-03-02T02:54:00.638Z,0
2019-03-02T02:54:41.238Z,0
2019-03-02T02:55:21.821Z,0
2019-03-02T02:56:02.425Z,0
2019-03-02T02:56:43.019Z,0
2019-03-02T02:57:23.614Z,0
2019-03-02T02:58:04.225Z,0
2019-03-02T02:58:44.820Z,0
2019-03-02T02:59:25.415Z,0
2019-03-02T03:00:06.000Z,0
2019-03-02T03:00:49.990Z,0
2019-03-02T03:01:32.741Z,0
2019-03-02T03:02:10.705Z,0
2019-03-02T03:02:48.390Z,0
2019-03-02T03:03:28.938Z,0
2019-03-02T03:04:09.530Z,0
2019-03-02T03:04:50.190Z,0
2019-03-02T03:05:30.769Z,0
2019-03-02T03:06:11.365Z,0
2019-03-02T03:06:51.963Z,0
2019-03-02T03:07:32.551Z,0
2019-03-02T03:08:13.157Z,0
2019-03-02T03:08:53.747Z,0
2019-03-02T03:09:34.335Z,0
2019-03-02T03:10:14.923Z,0
2019-03-02T03:10:55.512Z,0
2019-03-02T03:11:43.525Z,0
2019-03-02T03:12:17.821Z,0
2019-03-02T03:13:01.810Z,0
2019-03-02T03:13:40.550Z,0
2019-03-02T03:14:19.775Z,0
2019-03-02T03:14:59.672Z,0
2019-03-02T03:15:39.640Z,0
2019-03-02T03:16:20.255Z,0
2019-03-02T03:17:00.837Z,0
2019-03-02T03:17:41.424Z,0
2019-03-02T03:18:22.015Z,0
2019-03-02T03:19:02.646Z,0
2019-03-02T03:19:43.230Z,0
2019-03-02T03:20:23.817Z,0
2019-03-02T03:21:04.399Z,0
2019-03-02T03:21:44.994Z,0
2019-03-02T03:22:25.583Z,0
2019-03-02T03:23:06.204Z,0
2019-03-02T03:23:46.780Z,0
2019-03-02T03:24:27.375Z,0
2019-03-02T03:25:07.971Z,0
2019-03-02T03:25:55.870Z,0
2019-03-02T03:26:30.805Z,0
2019-03-02T03:27:13.188Z,0
2019-03-02T03:27:51.715Z,0
2019-03-02T03:28:32.534Z,0
2019-03-02T03:29:11.527Z,0
2019-03-02T03:29:52.122Z,0
2019-03-02T03:30:36.033Z,0
2019-03-02T03:31:20.807Z,0
2019-03-02T03:31:53.994Z,0
2019-03-02T03:32:34.511Z,0
2019-03-02T03:33:15.077Z,0
2019-03-02T03:33:55.689Z,0
2019-03-02T03:34:36.278Z,0
2019-03-02T03:35:19.611Z,0
2019-03-02T03:35:57.686Z,0
2019-03-02T03:36:38.061Z,0
2019-03-02T03:37:18.651Z,0
2019-03-02T03:37:59.257Z,0
2019-03-02T03:38:39.837Z,0
2019-03-02T03:39:20.440Z,0
2019-03-02T03:40:01.047Z,0
2019-03-02T03:40:41.638Z,0
2019-03-02T03:41:22.227Z,0
2019-03-02T03:42:02.836Z,0
2019-03-02T03:42:43.416Z,0
2019-03-02T03:43:24.027Z,0
2019-03-02T03:44:04.618Z,0
2019-03-02T03:44:45.196Z,0
2019-03-02T03:45:27.859Z,0
2019-03-02T03:46:06.375Z,0
2019-03-02T03:46:46.965Z,0
2019-03-02T03:47:27.568Z,0
2019-03-02T03:48:08.153Z,0
2019-03-02T03:48:51.213Z,0
2019-03-02T03:49:29.924Z,0
2019-03-02T03:50:13.863Z,0
2019-03-02T03:50:52.281Z,0
2019-03-02T03:51:32.103Z,0
2019-03-02T03:52:11.714Z,0
2019-03-02T03:52:52.309Z,0
2019-03-02T03:53:32.897Z,0
2019-03-02T03:54:13.479Z,0
2019-03-02T03:54:54.085Z,0
2019-03-02T03:55:34.678Z,0
2019-03-02T03:56:15.253Z,0
2019-03-02T03:56:55.857Z,0
2019-03-02T03:57:36.445Z,0
2019-03-02T03:58:17.023Z,0
2019-03-02T03:58:57.615Z,0
2019-03-02T03:59:38.236Z,0
2019-03-02T04:00:18.846Z,0
2019-03-02T04:00:59.434Z,0
2019-03-02T04:01:40.048Z,0
2019-03-02T04:02:20.661Z,0
2019-03-02T04:03:01.280Z,0
2019-03-02T04:03:41.864Z,0
2019-03-02T04:04:24.624Z,0
2019-03-02T04:05:08.228Z,0
2019-03-02T04:05:46.965Z,0
2019-03-02T04:06:27.635Z,0
2019-03-02T04:07:06.209Z,0
2019-03-02T04:07:49.513Z,0
2019-03-02T04:08:28.715Z,0
2019-03-02T04:09:08.206Z,0
2019-03-02T04:09:48.270Z,0
2019-03-02T04:10:28.051Z,0
2019-03-02T04:11:08.362Z,0
2019-03-02T04:11:48.971Z,0
2019-03-02T04:12:29.552Z,0
2019-03-02T04:13:10.176Z,0
2019-03-02T04:13:50.786Z,0
2019-03-02T04:14:31.394Z,0
2019-03-02T04:15:11.976Z,0
2019-03-02T04:15:55.242Z,0
2019-03-02T04:16:33.156Z,0
2019-03-02T04:17:13.757Z,0
2019-03-02T04:17:54.366Z,0
2019-03-02T04:18:34.951Z,0
2019-03-02T04:19:15.548Z,0
2019-03-02T04:19:56.142Z,0
2019-03-02T04:20:36.725Z,0
2019-03-02T04:21:17.314Z,0
2019-03-02T04:22:01.872Z,0
2019-03-02T04:22:39.800Z,0
2019-03-02T04:23:21.980Z,0
2019-03-02T04:24:01.102Z,0
2019-03-02T04:24:41.048Z,0
2019-03-02T04:25:20.869Z,0
2019-03-02T04:26:01.474Z,0
2019-03-02T04:26:42.075Z,0
2019-03-02T04:27:22.668Z,0
2019-03-02T04:28:03.252Z,0
2019-03-02T04:28:43.849Z,0
2019-03-02T04:29:24.442Z,0
2019-03-02T04:30:05.033Z,0
2019-03-02T04:30:45.640Z,0
2019-03-02T04:31:26.227Z,0
2019-03-02T04:32:06.819Z,0
2019-03-02T04:32:47.429Z,0
2019-03-02T04:33:28.006Z,0
2019-03-02T04:34:08.602Z,0
2019-03-02T04:34:49.203Z,0
2019-03-02T04:35:33.203Z,0
2019-03-02T04:36:11.210Z,0
2019-03-02T04:36:50.972Z,0
2019-03-02T04:37:31.586Z,0
2019-03-02T04:38:12.168Z,0
2019-03-02T04:38:52.745Z,0
2019-03-02T04:39:33.395Z,0
2019-03-02T04:40:13.986Z,0
2019-03-02T04:40:54.561Z,0
2019-03-02T04:41:35.560Z,0
2019-03-02T04:42:15.745Z,0
2019-03-02T04:42:56.327Z,0
2019-03-02T04:43:36.913Z,0
2019-03-02T04:44:17.505Z,0
2019-03-02T04:44:58.093Z,0
2019-03-02T04:45:39.663Z,0
2019-03-02T04:46:19.314Z,0
2019-03-02T04:46:59.906Z,0
2019-03-02T04:47:40.525Z,0
2019-03-02T04:48:21.127Z,0
2019-03-02T04:49:01.739Z,0
2019-03-02T04:49:42.331Z,0
2019-03-02T04:50:23.470Z,0
2019-03-02T04:51:03.537Z,0
2019-03-02T04:51:44.099Z,0
2019-03-02T04:52:24.690Z,0
2019-03-02T04:53:05.275Z,0
2019-03-02T04:53:45.857Z,0
2019-03-02T04:54:26.450Z,0
2019-03-02T04:55:09.361Z,0
2019-03-02T04:55:48.507Z,0
2019-03-02T04:56:28.212Z,0
2019-03-02T04:57:08.800Z,0
2019-03-02T04:57:49.379Z,0
2019-03-02T04:58:29.973Z,0
2019-03-02T04:59:10.570Z,0
2019-03-02T04:59:53.607Z,0
2019-03-02T05:00:32.832Z,0
2019-03-02T05:01:12.337Z,0
2019-03-02T05:01:52.931Z,0
2019-03-02T05:02:33.523Z,0
2019-03-02T05:03:14.121Z,0
2019-03-02T05:03:57.166Z,0
2019-03-02T05:04:35.315Z,0
2019-03-02T05:05:15.905Z,0
2019-03-02T05:05:56.495Z,0
2019-03-02T05:06:37.079Z,0
2019-03-02T05:07:17.657Z,0
2019-03-02T05:07:58.249Z,0
2019-03-02T05:08:41.080Z,0
2019-03-02T05:09:19.480Z,0
2019-03-02T05:10:00.165Z,0
2019-03-02T05:10:40.682Z,0
2019-03-02T05:11:21.279Z,0
2019-03-02T05:12:01.864Z,0
2019-03-02T05:12:42.454Z,0
2019-03-02T05:13:24.697Z,0
2019-03-02T05:14:04.238Z,0
2019-03-02T05:14:44.236Z,0
2019-03-02T05:15:24.828Z,0
2019-03-02T05:16:05.429Z,0
2019-03-02T05:16:46.013Z,0
2019-03-02T05:17:26.607Z,0
2019-03-02T05:18:07.192Z,0
2019-03-02T05:18:49.673Z,0
2019-03-02T05:19:29.084Z,0
2019-03-02T05:20:09.017Z,0
2019-03-02T05:20:49.602Z,0
2019-03-02T05:21:30.183Z,0
2019-03-02T05:22:10.770Z,0
2019-03-02T05:22:54.603Z,0
2019-03-02T05:23:31.942Z,0
2019-03-02T05:24:12.538Z,0
2019-03-02T05:24:53.118Z,0
2019-03-02T05:25:33.757Z,0
2019-03-02T05:26:14.348Z,0
2019-03-02T05:26:56.719Z,0
2019-03-02T05:27:35.557Z,0
2019-03-02T05:28:16.152Z,0
2019-03-02T05:28:56.772Z,0
2019-03-02T05:29:37.363Z,0
2019-03-02T05:30:17.976Z,0
2019-03-02T05:30:58.562Z,0
2019-03-02T05:31:40.862Z,0
2019-03-02T05:32:19.761Z,0
2019-03-02T05:33:00.335Z,0
2019-03-02T05:33:40.920Z,0
2019-03-02T05:34:21.500Z,0
2019-03-02T05:35:02.076Z,0
2019-03-02T05:35:42.669Z,0
2019-03-02T05:36:26.810Z,0
2019-03-02T05:37:03.967Z,0
2019-03-02T05:37:44.428Z,0
2019-03-02T05:38:25.007Z,0
2019-03-02T05:39:05.610Z,0
2019-03-02T05:39:46.210Z,0
2019-03-02T05:40:27.743Z,0
2019-03-02T05:41:07.406Z,0
2019-03-02T05:41:47.990Z,0
2019-03-02T05:42:28.572Z,0
2019-03-02T05:43:09.173Z,0
2019-03-02T05:43:49.763Z,0
2019-03-02T05:44:30.354Z,0
2019-03-02T05:45:10.955Z,0
2019-03-02T05:45:51.536Z,0
2019-03-02T05:46:32.128Z,0
2019-03-02T05:47:12.716Z,0
2019-03-02T05:47:53.319Z,0
2019-03-02T05:48:33.906Z,0
2019-03-02T05:49:15.648Z,0
2019-03-02T05:49:55.972Z,0
2019-03-02T05:50:35.672Z,0
2019-03-02T05:51:16.261Z,0
2019-03-02T05:51:56.853Z,0
2019-03-02T05:52:37.448Z,0
2019-03-02T05:53:18.044Z,0
2019-03-02T05:53:58.644Z,0
2019-03-02T05:54:41.502Z,0
2019-03-02T05:55:19.823Z,0
2019-03-02T05:56:00.403Z,0
2019-03-02T05:56:41.011Z,0
2019-03-02T05:57:21.610Z,0
2019-03-02T05:58:02.200Z,0
2019-03-02T05:58:42.784Z,0
2019-03-02T05:59:26.517Z,0
2019-03-02T06:00:03.951Z,0
2019-03-02T06:00:44.540Z,0
2019-03-02T06:01:25.134Z,0
2019-03-02T06:02:05.728Z,0
2019-03-02T06:02:46.633Z,0
2019-03-02T06:03:26.890Z,0
2019-03-02T06:04:07.476Z,0
2019-03-02T06:04:48.059Z,0
2019-03-02T06:05:28.657Z,0
2019-03-02T06:06:09.248Z,0
2019-03-02T06:06:50.605Z,0
2019-03-02T06:07:30.434Z,0
2019-03-02T06:08:11.026Z,0
2019-03-02T06:08:51.628Z,0
2019-03-02T06:09:32.240Z,0
2019-03-02T06:10:13.663Z,0
2019-03-02T06:10:53.418Z,0
2019-03-02T06:11:35.200Z,0
2019-03-02T06:12:15.435Z,0
2019-03-02T06:12:55.220Z,0
2019-03-02T06:13:35.814Z,0
2019-03-02T06:14:16.416Z,0
2019-03-02T06:14:57.025Z,0
2019-03-02T06:15:39.658Z,0
2019-03-02T06:16:18.646Z,0
2019-03-02T06:16:58.848Z,0
2019-03-02T06:17:39.483Z,0
2019-03-02T06:18:20.118Z,0
2019-03-02T06:19:00.714Z,0
2019-03-02T06:19:41.304Z,0
2019-03-02T06:20:21.900Z,0
2019-03-02T06:21:02.486Z,0
2019-03-02T06:21:46.275Z,0
2019-03-02T06:22:23.677Z,0
2019-03-02T06:23:04.266Z,0
2019-03-02T06:23:44.868Z,0
2019-03-02T06:24:25.478Z,0
2019-03-02T06:25:06.034Z,0
2019-03-02T06:25:46.618Z,0
2019-03-02T06:26:27.203Z,0
2019-03-02T06:27:10.789Z,0
2019-03-02T06:27:48.711Z,0
2019-03-02T06:28:28.986Z,0
2019-03-02T06:29:09.580Z,0
2019-03-02T06:29:50.174Z,0
2019-03-02T06:30:30.802Z,0
2019-03-02T06:31:11.386Z,0
2019-03-02T06:31:53.934Z,0
2019-03-02T06:32:33.568Z,0
2019-03-02T06:33:13.164Z,0
2019-03-02T06:33:53.754Z,0
2019-03-02T06:34:34.343Z,0
2019-03-02T06:35:14.924Z,0
2019-03-02T06:35:55.516Z,0
2019-03-02T06:36:36.104Z,0
2019-03-02T06:37:16.961Z,0
2019-03-02T06:37:57.379Z,0
2019-03-02T06:38:37.878Z,0
2019-03-02T06:39:18.462Z,0
2019-03-02T06:39:59.048Z,0
2019-03-02T06:40:39.638Z,0
2019-03-02T06:41:20.244Z,0
2019-03-02T06:42:00.838Z,0
2019-03-02T06:42:41.788Z,0
2019-03-02T06:43:22.811Z,0
2019-03-02T06:44:02.624Z,0
2019-03-02T06:44:43.262Z,0
2019-03-02T06:45:23.886Z,0
2019-03-02T06:46:04.506Z,0
2019-03-02T06:46:45.098Z,0
2019-03-02T06:47:25.710Z,0
2019-03-02T06:48:09.567Z,0
2019-03-02T06:48:46.885Z,0
2019-03-02T06:49:27.490Z,0
2019-03-02T06:50:08.072Z,0
2019-03-02T06:50:48.664Z,0
2019-03-02T06:51:29.294Z,0
2019-03-02T06:52:09.890Z,5
2019-03-02T06:52:50.488Z,5
2019-03-02T06:53:33.945Z,5
2019-03-02T06:54:12.882Z,5
2019-03-02T06:54:52.270Z,5
2019-03-02T06:55:32.864Z,5
2019-03-02T06:56:15.623Z,5
2019-03-02T06:56:57.666Z,5
2019-03-02T06:57:34.666Z,5
2019-03-02T06:58:15.266Z,5
2019-03-02T06:58:55.851Z,5
2019-03-02T06:59:39.291Z,5
2019-03-02T07:00:17.459Z,5
2019-03-02T07:00:58.248Z,5
2019-03-02T07:01:38.970Z,5
2019-03-02T07:02:20.264Z,5
2019-03-02T07:03:00.996Z,5
2019-03-02T07:03:42.831Z,5
2019-03-02T07:04:23.074Z,5
2019-03-02T07:05:02.717Z,5
2019-03-02T07:05:43.306Z,5
2019-03-02T07:06:23.908Z,5
2019-03-02T07:07:06.150Z,5
2019-03-02T07:07:45.088Z,5
2019-03-02T07:08:25.680Z,5
2019-03-02T07:09:09.465Z,10
2019-03-02T07:09:46.872Z,10
2019-03-02T07:10:27.472Z,10
2019-03-02T07:11:08.062Z,10
2019-03-02T07:11:48.664Z,10
2019-03-02T07:12:29.251Z,10
2019-03-02T07:13:09.840Z,10
2019-03-02T07:13:53.478Z,10
2019-03-02T07:14:32.252Z,10
2019-03-02T07:15:13.315Z,10
2019-03-02T07:15:52.534Z,10
2019-03-02T07:16:33.118Z,10
2019-03-02T07:17:13.718Z,10
2019-03-02T07:17:54.310Z,10
2019-03-02T07:18:34.911Z,10
2019-03-02T07:19:16.666Z,15
2019-03-02T07:19:56.111Z,15
2019-03-02T07:20:36.720Z,15
2019-03-02T07:21:17.314Z,15
2019-03-02T07:21:57.900Z,10
2019-03-02T07:22:38.500Z,15
2019-03-02T07:23:19.135Z,15
2019-03-02T07:23:59.726Z,20
2019-03-02T07:24:40.328Z,20
2019-03-02T07:25:20.916Z,25
2019-03-02T07:26:01.520Z,25
2019-03-02T07:26:42.147Z,25
2019-03-02T07:27:22.784Z,25
2019-03-02T07:28:05.852Z,20
2019-03-02T07:28:44.000Z,20
2019-03-02T07:29:24.582Z,15
2019-03-02T07:30:05.372Z,20
2019-03-02T07:30:46.122Z,20
2019-03-02T07:31:26.694Z,20
2019-03-02T07:32:07.297Z,15
2019-03-02T07:32:47.896Z,15
2019-03-02T07:33:28.480Z,20
2019-03-02T07:34:09.809Z,15
2019-03-02T07:34:49.664Z,20
2019-03-02T07:35:30.676Z,20
2019-03-02T07:36:10.981Z,20
2019-03-02T07:36:51.642Z,20
2019-03-02T07:37:32.519Z,20
2019-03-02T07:38:13.108Z,20
2019-03-02T07:38:56.534Z,20
2019-03-02T07:39:36.426Z,20
2019-03-02T07:40:14.871Z,20
2019-03-02T07:40:55.458Z,20
2019-03-02T07:41:36.057Z,20
2019-03-02T07:42:16.658Z,20
2019-03-02T07:42:57.250Z,20
2019-03-02T07:43:37.835Z,20
2019-03-02T07:44:18.788Z,20
2019-03-02T07:44:59.354Z,20
2019-03-02T07:45:39.713Z,15
2019-03-02T07:46:20.303Z,15
2019-03-02T07:47:00.903Z,15
2019-03-02T07:47:41.533Z,15
2019-03-02T07:48:22.176Z,15
2019-03-02T07:49:02.773Z,15
2019-03-02T07:49:46.134Z,15
2019-03-02T07:50:25.552Z,15
2019-03-02T07:51:05.056Z,15
2019-03-02T07:51:45.189Z,15
2019-03-02T07:52:25.795Z,15
2019-03-02T07:53:06.493Z,15
2019-03-02T07:53:47.114Z,15
2019-03-02T07:54:27.720Z,15
2019-03-02T07:55:08.308Z,15
2019-03-02T07:55:48.990Z,15
2019-03-02T07:56:29.640Z,15
2019-03-02T07:57:10.120Z,15
2019-03-02T07:57:50.726Z,15
2019-03-02T07:58:31.311Z,15
2019-03-02T07:59:11.897Z,15
2019-03-02T07:59:52.592Z,15
2019-03-02T08:00:33.257Z,15
2019-03-02T08:01:16.618Z,15
2019-03-02T08:01:54.588Z,15
2019-03-02T08:02:35.220Z,15
2019-03-02T08:03:15.818Z,15
2019-03-02T08:03:59.602Z,15
2019-03-02T08:04:38.442Z,15
2019-03-02T08:05:17.618Z,15
2019-03-02T08:05:58.258Z,15
2019-03-02T08:06:38.848Z,15
2019-03-02T08:07:19.445Z,15
2019-03-02T08:08:00.098Z,15
2019-03-02T08:08:40.696Z,15
2019-03-02T08:09:21.888Z,15
2019-03-02T08:10:02.309Z,15
2019-03-02T08:10:42.478Z,15
2019-03-02T08:11:23.072Z,15
2019-03-02T08:12:03.655Z,15
2019-03-02T08:12:44.262Z,15
2019-03-02T08:13:24.857Z,15
2019-03-02T08:14:08.743Z,15
2019-03-02T08:14:47.785Z,15
2019-03-02T08:15:26.664Z,15
2019-03-02T08:16:07.246Z,15
2019-03-02T08:16:47.852Z,15
2019-03-02T08:17:28.448Z,15
2019-03-02T08:18:09.024Z,15
2019-03-02T08:18:49.618Z,15
2019-03-02T08:19:30.218Z,15
2019-03-02T08:20:10.823Z,15
2019-03-02T08:20:51.416Z,15
2019-03-02T08:21:32.397Z,15
2019-03-02T08:22:12.589Z,15
2019-03-02T08:22:53.182Z,15
2019-03-02T08:23:33.771Z,15
2019-03-02T08:24:14.369Z,15
2019-03-02T08:24:54.965Z,15
2019-03-02T08:25:35.564Z,15
2019-03-02T08:26:16.151Z,15
2019-03-02T08:26:56.737Z,15
2019-03-02T08:27:37.332Z,15
2019-03-02T08:28:17.931Z,15
2019-03-02T08:28:58.518Z,15
2019-03-02T08:29:39.148Z,20
2019-03-02T08:30:19.804Z,20
2019-03-02T08:31:00.416Z,20
2019-03-02T08:31:41.874Z,20
2019-03-02T08:32:22.075Z,20
2019-03-02T08:33:02.194Z,20
2019-03-02T08:33:45.743Z,20
2019-03-02T08:34:23.390Z,20
2019-03-02T08:35:04.030Z,20
2019-03-02T08:35:44.635Z,20
2019-03-02T08:36:25.246Z,20
2019-03-02T08:37:05.860Z,20
2019-03-02T08:37:46.531Z,20
2019-03-02T08:38:27.122Z,20
2019-03-02T08:39:10.633Z,20
2019-03-02T08:39:48.298Z,20
2019-03-02T08:40:28.880Z,25
2019-03-02T08:41:09.473Z,25
2019-03-02T08:41:50.076Z,25
2019-03-02T08:42:30.660Z,25
2019-03-02T08:43:12.934Z,25
2019-03-02T08:43:51.892Z,25
2019-03-02T08:44:32.485Z,25
2019-03-02T08:45:13.072Z,25
2019-03-02T08:45:53.676Z,25
2019-03-02T08:46:34.302Z,25
2019-03-02T08:47:14.896Z,25
2019-03-02T08:47:55.495Z,25
2019-03-02T08:48:36.093Z,25
2019-03-02T08:49:16.677Z,25
2019-03-02T08:49:57.263Z,25
2019-03-02T08:50:37.874Z,30
2019-03-02T08:51:18.465Z,25
2019-03-02T08:51:59.084Z,25
2019-03-02T08:52:39.678Z,20
2019-03-02T08:53:20.269Z,20
2019-03-02T08:54:00.850Z,20
2019-03-02T08:54:41.474Z,20
2019-03-02T08:55:22.063Z,20
2019-03-02T08:56:05.873Z,20
2019-03-02T08:56:43.760Z,20
2019-03-02T08:57:23.936Z,20
2019-03-02T08:58:04.412Z,20
2019-03-02T08:58:45.009Z,20
2019-03-02T08:59:25.610Z,20
2019-03-02T09:00:06.243Z,20
2019-03-02T09:00:46.809Z,20
2019-03-02T09:01:27.406Z,20
2019-03-02T09:02:07.993Z,25
2019-03-02T09:02:48.625Z,25
2019-03-02T09:03:30.299Z,30
2019-03-02T09:04:10.072Z,30
2019-03-02T09:04:50.921Z,30
2019-03-02T09:05:43.292Z,25
2019-03-02T09:06:11.954Z,30
2019-03-02T09:06:52.176Z,30
2019-03-02T09:07:32.788Z,30
2019-03-02T09:08:13.392Z,30
2019-03-02T09:08:53.975Z,30
2019-03-02T09:09:34.573Z,30
2019-03-02T09:10:15.193Z,25
2019-03-02T09:10:55.801Z,25
2019-03-02T09:11:36.399Z,25
2019-03-02T09:12:17.812Z,30
2019-03-02T09:12:58.602Z,30
2019-03-02T09:13:38.201Z,30
2019-03-02T09:14:18.797Z,30
2019-03-02T09:14:59.391Z,25
2019-03-02T09:15:39.982Z,20
2019-03-02T09:16:20.564Z,20
2019-03-02T09:17:01.172Z,20
2019-03-02T09:17:41.804Z,20
2019-03-02T09:18:22.418Z,20
2019-03-02T09:19:03.015Z,25
2019-03-02T09:19:43.617Z,30
2019-03-02T09:20:24.217Z,30
2019-03-02T09:21:04.814Z,25
2019-03-02T09:21:47.896Z,30
2019-03-02T09:22:27.653Z,30
2019-03-02T09:23:08.245Z,30
2019-03-02T09:23:48.838Z,30
2019-03-02T09:24:29.425Z,30
2019-03-02T09:25:10.011Z,30
2019-03-02T09:25:50.618Z,30
2019-03-02T09:26:31.213Z,30
2019-03-02T09:27:11.825Z,30
2019-03-02T09:27:52.405Z,30
2019-03-02T09:28:33.102Z,30
2019-03-02T09:29:13.688Z,35
2019-03-02T09:29:55.710Z,35
2019-03-02T09:30:34.923Z,35
2019-03-02T09:31:15.533Z,35
2019-03-02T09:31:56.160Z,30
2019-03-02T09:32:36.750Z,30
2019-03-02T09:33:17.351Z,30
2019-03-02T09:34:01.047Z,30
2019-03-02T09:34:40.381Z,30
2019-03-02T09:35:19.171Z,30
2019-03-02T09:35:59.767Z,25
2019-03-02T09:36:40.352Z,30
2019-03-02T09:37:20.960Z,30
2019-03-02T09:38:01.555Z,30
2019-03-02T09:38:42.159Z,30
2019-03-02T09:39:23.676Z,30
2019-03-02T09:40:03.382Z,30
2019-03-02T09:40:45.783Z,35
2019-03-02T09:41:25.338Z,35
2019-03-02T09:42:05.173Z,35
2019-03-02T09:42:45.801Z,35
2019-03-02T09:43:26.378Z,35
2019-03-02T09:44:06.992Z,35
2019-03-02T09:44:47.601Z,35
2019-03-02T09:45:28.213Z,35
2019-03-02T09:46:08.809Z,30
2019-03-02T09:46:49.403Z,25
2019-03-02T09:47:30.035Z,30
2019-03-02T09:48:10.629Z,30
2019-03-02T09:48:51.222Z,30
2019-03-02T09:49:33.831Z,35
2019-03-02T09:50:13.517Z,35
2019-03-02T09:50:52.996Z,35
2019-03-02T09:51:33.587Z,35
2019-03-02T09:52:14.189Z,35
2019-03-02T09:52:55.802Z,35
2019-03-02T09:53:35.419Z,35
2019-03-02T09:54:16.020Z,35
2019-03-02T09:54:56.633Z,30